createdAt,value
2019-03-23T00:00:38.285Z,2.33
2019-03-23T00:03:07.288Z,2.23
2019-03-23T00:05:36.592Z,2.00
2019-03-23T00:08:05.492Z,2.23
2019-03-23T00:10:34.751Z,2.00
2019-03-23T00:13:04.194Z,2.23
2019-03-23T00:15:33.071Z,1.90
2019-03-23T00:18:02.049Z,2.17
2019-03-23T00:20:30.887Z,1.80
2019-03-23T00:22:59.767Z,2.20
2019-03-23T00:25:28.624Z,2.00
2019-03-23T00:27:57.654Z,2.10
2019-03-23T00:30:26.598Z,1.87
2019-03-23T00:32:56.212Z,1.90
2019-03-23T00:35:25.100Z,2.07
2019-03-23T00:37:54.008Z,2.03
2019-03-23T00:40:23.234Z,2.13
2019-03-23T00:42:52.154Z,2.30
2019-03-23T00:45:21.450Z,2.10
2019-03-23T00:47:50.384Z,2.00
2019-03-23T00:50:19.276Z,1.97
2019-03-23T00:52:48.173Z,1.83
2019-03-23T00:55:17.030Z,2.10
2019-03-23T00:57:45.973Z,2.20
2019-03-23T01:00:15.509Z,2.17
2019-03-23T01:02:44.425Z,2.20
2019-03-23T01:05:13.820Z,1.97
2019-03-23T01:07:42.692Z,1.90
2019-03-23T01:10:13.525Z,2.00
2019-03-23T01:12:42.441Z,2.00
2019-03-23T01:15:11.856Z,1.80
2019-03-23T01:17:41.652Z,1.87
2019-03-23T01:20:11.376Z,1.93
2019-03-23T01:22:40.244Z,2.13
2019-03-23T01:25:09.496Z,2.00
2019-03-23T01:27:39.662Z,2.20
2019-03-23T01:30:11.040Z,2.03
2019-03-23T01:32:40.069Z,1.73
2019-03-23T01:35:10.306Z,2.03
2019-03-23T01:37:40.156Z,2.10
2019-03-23T01:40:10.674Z,2.10
2019-03-23T01:42:39.563Z,2.50
2019-03-23T01:45:09.280Z,2.33
2019-03-23T01:47:38.307Z,1.97
2019-03-23T01:50:09.229Z,1.83
2019-03-23T01:52:38.127Z,2.10
2019-03-23T01:55:07.829Z,2.00
2019-03-23T01:57:36.707Z,2.00
2019-03-23T02:00:06.695Z,1.90
2019-03-23T02:02:35.926Z,2.10
2019-03-23T02:05:05.961Z,2.30
2019-03-23T02:07:35.238Z,2.30
2019-03-23T02:10:09.995Z,1.90
2019-03-23T02:12:39.653Z,2.17
2019-03-23T02:15:09.867Z,1.87
2019-03-23T02:17:40.496Z,1.97
2019-03-23T02:20:09.426Z,1.90
2019-03-23T02:22:38.705Z,2.47
2019-03-23T02:25:08.321Z,1.90
2019-03-23T02:27:37.751Z,1.93
2019-03-23T02:30:08.703Z,1.73
2019-03-23T02:32:37.675Z,2.00
2019-03-23T02:35:07.469Z,1.83
2019-03-23T02:37:36.411Z,2.10
2019-03-23T02:40:05.866Z,2.20
2019-03-23T02:42:34.768Z,1.87
2019-03-23T02:45:05.090Z,1.90
2019-03-23T02:47:34.095Z,1.80
2019-03-23T02:50:03.453Z,2.20
2019-03-23T02:52:32.311Z,1.97
2019-03-23T02:55:01.247Z,2.10
2019-03-23T02:57:30.152Z,1.90
2019-03-23T02:59:59.068Z,2.10
2019-03-23T03:02:27.949Z,1.90
2019-03-23T03:04:56.902Z,1.90
2019-03-23T03:07:25.747Z,1.97
2019-03-23T03:09:54.677Z,1.77
2019-03-23T03:12:23.890Z,1.90
2019-03-23T03:14:53.103Z,1.80
2019-03-23T03:17:22.346Z,2.10
2019-03-23T03:19:51.269Z,1.60
2019-03-23T03:22:20.111Z,1.77
2019-03-23T03:24:49.382Z,1.87
2019-03-23T03:27:18.271Z,2.10
2019-03-23T03:29:47.167Z,2.33
2019-03-23T03:32:16.143Z,2.13
2019-03-23T03:34:45.062Z,1.90
2019-03-23T03:37:14.316Z,1.80
2019-03-23T03:39:43.888Z,1.50
2019-03-23T03:42:12.753Z,1.90
2019-03-23T03:44:41.995Z,2.17
2019-03-23T03:47:11.300Z,1.80
2019-03-23T03:49:40.203Z,2.00
2019-03-23T03:52:09.078Z,1.87
2019-03-23T03:54:37.961Z,1.67
2019-03-23T03:57:07.176Z,1.97
2019-03-23T03:59:36.155Z,1.80
2019-03-23T04:02:05.115Z,2.10
2019-03-23T04:04:34.003Z,1.80
2019-03-23T04:07:02.883Z,1.63
2019-03-23T04:09:32.137Z,1.87
2019-03-23T04:12:02.228Z,1.70
2019-03-23T04:14:31.474Z,2.00
2019-03-23T04:17:00.317Z,1.93
2019-03-23T04:19:29.524Z,1.80
2019-03-23T04:21:58.426Z,2.17
2019-03-23T04:24:27.733Z,2.23
2019-03-23T04:26:56.602Z,1.83
2019-03-23T04:29:25.544Z,1.83
2019-03-23T04:31:54.474Z,1.80
2019-03-23T04:34:23.709Z,2.20
2019-03-23T04:36:52.562Z,1.83
2019-03-23T04:39:21.817Z,1.70
2019-03-23T04:41:50.694Z,2.03
2019-03-23T04:44:19.573Z,1.60
2019-03-23T04:46:48.455Z,1.73
2019-03-23T04:49:17.353Z,1.80
2019-03-23T04:51:46.263Z,1.77
2019-03-23T04:54:15.148Z,1.83
2019-03-23T04:56:44.021Z,2.10
2019-03-23T04:59:12.934Z,1.90
2019-03-23T05:01:41.860Z,1.83
2019-03-23T05:04:10.744Z,1.73
2019-03-23T05:06:39.599Z,2.07
2019-03-23T05:09:08.862Z,2.00
2019-03-23T05:11:37.733Z,2.10
2019-03-23T05:14:06.652Z,1.87
2019-03-23T05:16:35.506Z,1.87
2019-03-23T05:19:04.423Z,2.13
2019-03-23T05:21:33.312Z,1.80
2019-03-23T05:24:03.490Z,1.97
2019-03-23T05:26:32.363Z,1.73
2019-03-23T05:29:01.262Z,2.13
2019-03-23T05:31:30.126Z,2.10
2019-03-23T05:33:59.075Z,2.00
2019-03-23T05:36:28.222Z,2.03
2019-03-23T05:38:57.119Z,1.80
2019-03-23T05:41:25.954Z,2.13
2019-03-23T05:43:54.835Z,1.87
2019-03-23T05:46:23.700Z,1.87
2019-03-23T05:48:53.407Z,2.20
2019-03-23T05:51:22.366Z,1.80
2019-03-23T05:53:51.354Z,1.80
2019-03-23T05:56:20.248Z,1.70
2019-03-23T05:58:49.129Z,1.83
2019-03-23T06:01:17.988Z,1.90
2019-03-23T06:03:46.844Z,2.03
2019-03-23T06:06:15.779Z,2.10
2019-03-23T06:08:54.459Z,1.70
2019-03-23T06:11:15.429Z,1.90
2019-03-23T06:13:44.693Z,1.70
2019-03-23T06:16:13.898Z,2.00
2019-03-23T06:18:42.860Z,1.80
2019-03-23T06:21:11.861Z,1.90
2019-03-23T06:23:41.015Z,2.10
2019-03-23T06:26:09.900Z,2.00
2019-03-23T06:28:38.734Z,2.00
2019-03-23T06:31:07.611Z,2.10
2019-03-23T06:33:37.608Z,2.17
2019-03-23T06:36:06.523Z,2.00
2019-03-23T06:38:35.399Z,2.30
2019-03-23T06:41:04.331Z,2.13
2019-03-23T06:43:34.355Z,2.10
2019-03-23T06:46:04.232Z,1.93
2019-03-23T06:48:33.114Z,2.10
2019-03-23T06:51:03.320Z,2.00
2019-03-23T06:53:33.487Z,2.20
2019-03-23T06:56:03.913Z,1.87
2019-03-23T06:58:32.904Z,1.77
2019-03-23T07:01:01.787Z,2.00
2019-03-23T07:03:30.664Z,2.13
2019-03-23T07:05:59.615Z,2.17
2019-03-23T07:08:32.098Z,2.40
2019-03-23T07:10:59.738Z,2.10
2019-03-23T07:13:28.686Z,2.23
2019-03-23T07:15:57.591Z,2.03
2019-03-23T07:18:26.865Z,2.20
2019-03-23T07:20:55.936Z,2.33
2019-03-23T07:23:25.239Z,2.00
2019-03-23T07:25:54.120Z,2.27
2019-03-23T07:28:22.973Z,2.27
2019-03-23T07:30:52.729Z,2.10
2019-03-23T07:33:21.979Z,2.47
2019-03-23T07:35:50.868Z,2.37
2019-03-23T07:38:19.765Z,2.27
2019-03-23T07:40:48.650Z,2.53
2019-03-23T07:43:17.547Z,2.40
2019-03-23T07:45:46.420Z,2.30
2019-03-23T07:48:15.590Z,2.30
2019-03-23T07:50:44.728Z,2.90
2019-03-23T07:53:13.588Z,2.40
2019-03-23T07:55:42.825Z,2.67
2019-03-23T07:58:11.831Z,2.33
2019-03-23T08:00:41.148Z,2.63
2019-03-23T08:03:10.057Z,2.80
2019-03-23T08:05:39.036Z,2.67
2019-03-23T08:08:07.895Z,2.20
2019-03-23T08:10:36.809Z,2.13
2019-03-23T08:13:05.704Z,2.30
2019-03-23T08:15:34.598Z,2.53
2019-03-23T08:18:11.461Z,2.60
2019-03-23T08:20:40.483Z,2.50
2019-03-23T08:23:10.003Z,2.63
2019-03-23T08:25:38.900Z,3.00
2019-03-23T08:28:07.757Z,3.07
2019-03-23T08:30:36.642Z,2.70
2019-03-23T08:33:05.838Z,2.87
2019-03-23T08:35:34.732Z,2.90
2019-03-23T08:38:05.232Z,3.30
2019-03-23T08:40:35.792Z,3.63
2019-03-23T08:43:04.913Z,3.50
2019-03-23T08:45:34.130Z,3.30
2019-03-23T08:48:03.919Z,3.17
2019-03-23T08:50:32.858Z,3.50
2019-03-23T08:53:01.720Z,3.40
2019-03-23T08:55:33.403Z,3.73
2019-03-23T08:58:03.440Z,3.53
2019-03-23T09:00:32.296Z,3.57
2019-03-23T09:03:03.612Z,3.83
2019-03-23T09:05:32.420Z,4.30
2019-03-23T09:08:01.365Z,4.07
2019-03-23T09:10:30.290Z,3.60
2019-03-23T09:12:59.127Z,4.30
2019-03-23T09:15:28.057Z,4.30
2019-03-23T09:17:57.235Z,4.13
2019-03-23T09:20:26.127Z,4.33
2019-03-23T09:22:55.156Z,4.37
2019-03-23T09:25:24.079Z,4.80
2019-03-23T09:27:53.327Z,4.37
2019-03-23T09:30:22.204Z,4.63
2019-03-23T09:32:51.077Z,4.90
2019-03-23T09:35:19.967Z,5.27
2019-03-23T09:37:49.171Z,5.03
2019-03-23T09:40:18.088Z,4.97
2019-03-23T10:14:38.244Z,4.03
2019-03-23T10:17:08.454Z,5.13
2019-03-23T10:19:37.367Z,6.37
2019-03-23T10:22:07.536Z,6.13
2019-03-23T10:24:36.598Z,6.80
2019-03-23T10:27:05.677Z,6.83
2019-03-23T10:29:34.646Z,6.60
2019-03-23T10:32:04.805Z,7.17
2019-03-23T10:34:35.503Z,7.07
2019-03-23T10:37:04.416Z,7.13
2019-03-23T10:39:33.278Z,7.17
2019-03-23T10:42:02.420Z,7.90
2019-03-23T10:44:31.448Z,7.03
2019-03-23T10:47:00.387Z,7.53
2019-03-23T10:49:29.254Z,8.00
2019-03-23T10:51:58.436Z,7.23
2019-03-23T10:54:27.289Z,7.03
2019-03-23T10:56:56.309Z,7.63
2019-03-23T10:59:25.703Z,7.73
2019-03-23T11:01:54.737Z,7.87
2019-03-23T11:04:23.938Z,8.27
2019-03-23T11:06:52.959Z,7.90
2019-03-23T11:09:22.220Z,8.33
2019-03-23T11:11:53.122Z,8.90
2019-03-23T11:14:22.469Z,8.97
2019-03-23T11:16:51.495Z,8.30
2019-03-23T11:19:20.366Z,8.33
2019-03-23T11:21:49.294Z,9.40
2019-03-23T11:24:18.290Z,9.07
2019-03-23T11:26:47.505Z,9.27
2019-03-23T11:29:16.455Z,8.77
2019-03-23T11:31:45.471Z,9.07
2019-03-23T11:34:18.080Z,9.33
2019-03-23T11:36:45.414Z,8.80
2019-03-23T11:39:14.590Z,9.53
2019-03-23T11:41:43.659Z,9.60
2019-03-23T11:44:12.607Z,8.53
2019-03-23T11:46:41.782Z,9.13
2019-03-23T11:49:10.676Z,9.63
2019-03-23T11:51:40.006Z,9.60
2019-03-23T11:54:09.378Z,9.97
2019-03-23T11:56:38.684Z,9.53
2019-03-23T11:59:07.537Z,9.60
2019-03-23T12:01:36.422Z,9.67
2019-03-23T12:04:06.546Z,9.63
2019-03-23T12:06:35.444Z,9.87
2019-03-23T12:09:06.950Z,9.50
2019-03-23T12:11:36.370Z,9.30
2019-03-23T12:14:06.997Z,10.63
2019-03-23T12:16:35.933Z,10.07
2019-03-23T12:19:05.118Z,9.90
2019-03-23T12:21:34.023Z,10.07
2019-03-23T12:24:02.976Z,9.97
2019-03-23T12:26:31.838Z,9.57
2019-03-23T12:29:00.893Z,9.03
2019-03-23T12:31:29.903Z,9.83
2019-03-23T12:33:58.786Z,10.00
2019-03-23T12:36:28.038Z,9.83
2019-03-23T12:38:56.878Z,9.50
2019-03-23T12:41:25.769Z,9.87
2019-03-23T12:43:54.944Z,9.53
2019-03-23T12:46:24.244Z,9.60
2019-03-23T12:48:54.869Z,10.80
2019-03-23T12:51:25.659Z,10.20
2019-03-23T12:53:54.526Z,10.03
2019-03-23T12:56:23.769Z,9.47
2019-03-23T12:58:52.626Z,9.93
2019-03-23T13:01:21.724Z,9.50
2019-03-23T13:03:50.638Z,10.53
2019-03-23T13:06:19.505Z,9.90
2019-03-23T13:08:48.363Z,10.17
2019-03-23T13:11:23.302Z,10.00
2019-03-23T13:13:48.341Z,10.23
2019-03-23T13:16:17.364Z,9.43
2019-03-23T13:18:46.680Z,9.43
2019-03-23T13:21:15.993Z,9.70
2019-03-23T13:23:44.907Z,9.43
2019-03-23T13:26:13.796Z,10.17
2019-03-23T13:28:42.748Z,10.17
2019-03-23T13:31:19.477Z,9.20
2019-03-23T13:34:00.170Z,9.70
2019-03-23T13:36:30.929Z,9.60
2019-03-23T13:38:59.813Z,10.83
2019-03-23T13:41:28.686Z,10.37
2019-03-23T13:43:57.649Z,10.93
2019-03-23T13:46:26.533Z,11.13
2019-03-23T13:48:55.938Z,11.97
2019-03-23T13:51:24.850Z,11.23
2019-03-23T13:53:54.881Z,11.27
2019-03-23T13:56:25.046Z,11.57
2019-03-23T13:58:54.036Z,11.73
2019-03-23T14:01:23.000Z,11.63
2019-03-23T14:03:53.748Z,11.33
2019-03-23T14:06:23.394Z,12.33
2019-03-23T14:08:52.343Z,11.67
2019-03-23T14:11:21.261Z,11.83
2019-03-23T14:13:50.419Z,12.53
2019-03-23T14:16:20.543Z,11.07
2019-03-23T14:18:49.938Z,11.37
2019-03-23T14:21:18.929Z,11.53
2019-03-23T14:23:48.498Z,12.67
2019-03-23T14:26:17.970Z,11.60
2019-03-23T14:28:47.270Z,12.93
2019-03-23T14:31:16.120Z,12.10
2019-03-23T14:33:46.437Z,11.67
2019-03-23T14:36:15.665Z,11.77
2019-03-23T14:38:47.687Z,11.97
2019-03-23T14:41:16.784Z,11.40
2019-03-23T14:43:46.008Z,11.37
2019-03-23T14:46:15.484Z,10.47
2019-03-23T14:48:44.748Z,10.63
2019-03-23T14:51:15.146Z,11.23
2019-03-23T14:53:44.356Z,9.83
2019-03-23T14:56:13.249Z,11.03
2019-03-23T14:58:42.169Z,11.53
2019-03-23T15:01:11.460Z,11.33
2019-03-23T15:03:40.811Z,12.23
2019-03-23T15:06:09.911Z,12.20
2019-03-23T15:08:38.717Z,11.27
2019-03-23T15:11:07.707Z,11.63
2019-03-23T15:13:36.656Z,11.93
2019-03-23T15:16:08.029Z,12.23
2019-03-23T15:18:36.937Z,11.23
2019-03-23T15:21:06.715Z,11.30
2019-03-23T15:23:36.011Z,10.97
2019-03-23T15:26:07.477Z,12.40
2019-03-23T15:28:36.798Z,11.93
2019-03-23T15:31:05.680Z,12.30
2019-03-23T15:33:34.762Z,12.70
2019-03-23T15:36:04.438Z,11.67
2019-03-23T15:38:33.715Z,12.30
2019-03-23T15:41:02.756Z,11.47
2019-03-23T15:43:32.018Z,12.23
2019-03-23T15:46:02.223Z,11.57
2019-03-23T15:48:31.207Z,11.50
2019-03-23T15:51:00.218Z,11.73
2019-03-23T15:53:29.518Z,10.77
2019-03-23T15:55:59.166Z,10.67
2019-03-23T15:58:28.305Z,11.60
2019-03-23T16:00:57.208Z,10.63
2019-03-23T16:03:26.211Z,11.10
2019-03-23T16:05:55.266Z,10.23
2019-03-23T16:08:24.302Z,10.47
2019-03-23T16:10:53.381Z,10.37
2019-03-23T16:13:23.152Z,10.27
2019-03-23T16:15:52.087Z,9.97
2019-03-23T16:18:21.018Z,9.90
2019-03-23T16:20:49.974Z,10.13
2019-03-23T16:23:20.641Z,10.57
2019-03-23T16:25:50.734Z,9.50
2019-03-23T16:28:19.663Z,9.77
2019-03-23T16:30:48.591Z,9.73
2019-03-23T16:33:17.596Z,9.63
2019-03-23T16:35:46.645Z,8.87
2019-03-23T16:38:15.682Z,9.13
2019-03-23T16:40:44.834Z,9.30
2019-03-23T16:43:13.671Z,9.17
2019-03-23T16:45:43.916Z,9.50
2019-03-23T16:48:13.225Z,9.13
2019-03-23T16:50:42.118Z,9.10
2019-03-23T16:53:11.121Z,9.57
2019-03-23T16:55:40.044Z,9.37
2019-03-23T16:58:15.938Z,10.10
2019-03-23T17:00:41.074Z,9.37
2019-03-23T17:03:11.846Z,9.13
2019-03-23T17:05:41.074Z,9.37
2019-03-23T17:08:10.308Z,10.13
2019-03-23T17:10:40.224Z,9.37
2019-03-23T17:13:09.089Z,10.87
2019-03-23T17:15:38.007Z,10.30
2019-03-23T17:18:10.309Z,10.03
2019-03-23T17:20:40.742Z,10.07
2019-03-23T17:23:10.007Z,10.40
2019-03-23T17:25:39.379Z,9.47
2019-03-23T17:28:09.939Z,9.70
2019-03-23T17:30:39.102Z,9.77
2019-03-23T17:33:08.998Z,10.03
2019-03-23T17:35:38.161Z,9.37
2019-03-23T17:38:09.222Z,9.20
2019-03-23T17:40:39.362Z,9.00
2019-03-23T17:43:08.374Z,9.87
2019-03-23T17:45:37.761Z,10.73
2019-03-23T17:48:06.816Z,10.40
2019-03-23T17:50:36.935Z,13.70
2019-03-23T17:53:07.262Z,16.77
2019-03-23T17:55:36.511Z,14.97
2019-03-23T17:58:05.584Z,13.63
2019-03-23T18:00:34.683Z,14.57
2019-03-23T18:03:03.862Z,14.17
2019-03-23T18:05:32.794Z,13.17
2019-03-23T18:08:02.261Z,12.57
2019-03-23T18:10:31.758Z,10.87
2019-03-23T18:13:00.837Z,10.93
2019-03-23T18:15:30.160Z,10.23
2019-03-23T18:18:01.092Z,10.93
2019-03-23T18:20:30.230Z,11.90
2019-03-23T18:22:59.313Z,12.37
2019-03-23T18:25:28.267Z,12.60
2019-03-23T18:27:57.430Z,13.53
2019-03-23T18:30:39.055Z,13.97
2019-03-23T18:33:08.438Z,14.00
2019-03-23T18:35:37.510Z,13.23
2019-03-23T18:38:06.838Z,12.83
2019-03-23T18:40:36.738Z,11.13
2019-03-23T18:43:12.881Z,10.83
2019-03-23T18:45:41.951Z,10.07
2019-03-23T18:48:12.037Z,9.23
2019-03-23T18:50:51.209Z,8.70
2019-03-23T18:53:20.155Z,8.47
2019-03-23T18:55:50.140Z,7.70
2019-03-23T18:58:19.088Z,7.43
2019-03-23T19:00:48.051Z,7.40
2019-03-23T19:03:17.345Z,7.40
2019-03-23T19:05:47.167Z,7.10
2019-03-23T19:08:17.014Z,7.50
2019-03-23T19:10:54.773Z,6.67
2019-03-23T19:13:24.700Z,6.40
2019-03-23T19:16:02.737Z,6.80
2019-03-23T19:18:33.282Z,6.67
2019-03-23T19:21:02.589Z,6.30
2019-03-23T19:23:31.892Z,5.93
2019-03-23T19:26:01.096Z,6.60
2019-03-23T19:28:30.062Z,6.37
2019-03-23T19:30:59.179Z,6.40
2019-03-23T19:33:28.134Z,5.60
2019-03-23T19:35:57.757Z,6.23
2019-03-23T19:38:43.050Z,5.70
2019-03-23T19:41:13.644Z,5.67
2019-03-23T19:43:48.629Z,6.07
2019-03-23T19:46:13.668Z,5.90
2019-03-23T19:48:42.744Z,6.37
2019-03-23T19:51:11.914Z,6.07
2019-03-23T19:53:40.896Z,6.03
2019-03-23T19:56:12.113Z,6.27
2019-03-23T19:58:41.125Z,6.20
2019-03-23T20:01:10.241Z,5.63
2019-03-23T20:06:32.068Z,5.83
2019-03-23T20:09:01.154Z,5.60
2019-03-23T20:11:32.373Z,5.70
2019-03-23T20:14:01.605Z,5.33
2019-03-23T20:16:32.625Z,5.57
2019-03-23T20:19:01.676Z,4.97
2019-03-23T20:21:31.847Z,5.60
2019-03-23T20:24:00.734Z,5.17
2019-03-23T20:26:29.779Z,5.30
2019-03-23T20:29:10.153Z,4.80
2019-03-23T20:31:39.381Z,5.37
2019-03-23T20:34:11.215Z,5.27
2019-03-23T20:36:40.473Z,4.43
2019-03-23T20:39:09.817Z,5.27
2019-03-23T20:41:40.773Z,4.97
2019-03-23T20:44:11.225Z,4.80
2019-03-23T20:46:40.813Z,4.77
2019-03-23T20:49:10.773Z,4.83
2019-03-23T20:51:48.962Z,5.20
2019-03-23T20:54:29.486Z,5.43
2019-03-23T20:56:58.915Z,5.37
2019-03-23T20:59:28.419Z,5.70
2019-03-23T21:01:57.970Z,5.43
2019-03-23T21:04:26.950Z,5.63
2019-03-23T21:06:56.715Z,5.37
2019-03-23T21:09:25.761Z,6.00
2019-03-23T21:11:54.975Z,5.40
2019-03-23T21:14:52.850Z,5.37
2019-03-23T21:17:21.741Z,5.20
2019-03-23T21:19:53.845Z,4.67
2019-03-23T21:22:22.781Z,5.43
2019-03-23T21:24:51.739Z,5.60
2019-03-23T21:27:21.012Z,5.57
2019-03-23T21:30:00.438Z,5.70
2019-03-23T21:32:29.522Z,6.17
2019-03-23T21:34:58.651Z,5.87
2019-03-23T21:37:27.854Z,5.70
2019-03-23T21:39:57.335Z,6.03
2019-03-23T21:42:26.445Z,5.60
2019-03-23T21:45:05.033Z,5.60
2019-03-23T21:47:34.429Z,5.60
2019-03-23T21:50:04.282Z,6.73
2019-03-23T21:52:33.250Z,6.20
2019-03-23T21:55:17.049Z,6.67
2019-03-23T21:57:46.646Z,7.13
2019-03-23T22:00:30.747Z,7.03
2019-03-23T22:03:01.109Z,6.77
2019-03-23T22:05:31.554Z,7.00
2019-03-23T22:08:00.952Z,7.90
2019-03-23T22:10:31.357Z,8.37
2019-03-23T22:13:00.938Z,8.73
2019-03-23T22:15:33.645Z,9.27
2019-03-23T22:18:02.702Z,9.57
2019-03-23T22:20:31.927Z,9.73
2019-03-23T22:23:02.553Z,9.97
2019-03-23T22:25:32.812Z,9.60
2019-03-23T22:28:01.924Z,10.07
2019-03-23T22:30:31.974Z,9.80
2019-03-23T22:33:01.555Z,10.13
2019-03-23T22:35:30.471Z,10.23
2019-03-23T22:38:00.200Z,9.70
2019-03-23T22:40:29.268Z,9.13
2019-03-23T22:42:58.336Z,9.80
2019-03-23T22:45:27.491Z,9.67
2019-03-23T22:47:56.543Z,10.13
2019-03-23T22:50:25.828Z,9.47
2019-03-23T22:52:56.541Z,8.73
2019-03-23T22:55:25.522Z,8.97
2019-03-23T22:57:54.650Z,10.30
2019-03-23T23:00:42.217Z,10.90
2019-03-23T23:03:12.164Z,10.43
2019-03-23T23:05:41.343Z,10.37
2019-03-23T23:08:11.851Z,10.77
2019-03-23T23:10:41.722Z,11.43
2019-03-23T23:13:10.901Z,9.77
2019-03-23T23:15:39.877Z,8.53
2019-03-23T23:18:10.477Z,7.70
2019-03-23T23:20:39.847Z,7.00
2019-03-23T23:23:08.749Z,7.17
2019-03-23T23:25:37.746Z,6.63
2019-03-23T23:28:06.836Z,5.47
2019-03-23T23:30:36.292Z,5.40
2019-03-23T23:33:07.494Z,4.63
2019-03-23T23:35:38.591Z,5.20
2019-03-23T23:38:08.654Z,5.30
2019-03-23T23:40:37.604Z,5.40
2019-03-23T23:43:06.487Z,5.23
2019-03-23T23:45:35.381Z,5.63
2019-03-23T23:48:04.410Z,5.90
2019-03-23T23:50:33.295Z,5.30
2019-03-23T23:53:02.599Z,6.00
2019-03-23T23:55:31.971Z,5.90
2019-03-23T23:58:00.876Z,5.97
